sensor_id;sensor_type;location;lat;lon;timestamp;pressure;altitude;pressure_sealevel;temperature;humidity
68891;BME280;55932;48.702;8.884;2023-07-31T00:00:11;96220;;;13.9;71
68891;BME280;55932;48.702;8.884;2023-07-31T00:02:41;96220;;;14;71
68891;BME280;55932;48.702;8.884;2023-07-31T00:05:12;96230;;;13.9;71
68891;BME280;55932;48.702;8.884;2023-07-31T00:12:45;96240;;;13.7;71.5
68891;BME280;55932;48.702;8.884;2023-07-31T00:15:15;96240;;;13.7;71.5
68891;BME280;55932;48.702;8.884;2023-07-31T00:20:24;96240;;;13.6;71.5
68891;BME280;55932;48.702;8.884;2023-07-31T00:22:55;96240;;;13.4;71.5
68891;BME280;55932;48.702;8.884;2023-07-31T00:28:15;96250;;;13.1;72
68891;BME280;55932;48.702;8.884;2023-07-31T00:30:32;96240;;;13;72
68891;BME280;55932;48.702;8.884;2023-07-31T00:35:27;96250;;;12.7;72.5
68891;BME280;55932;48.702;8.884;2023-07-31T00:40:36;96240;;;12.5;72.5
68891;BME280;55932;48.702;8.884;2023-07-31T00:45:31;96230;;;12.6;72
68891;BME280;55932;48.702;8.884;2023-07-31T00:50:39;96230;;;12.7;72
68891;BME280;55932;48.702;8.884;2023-07-31T00:53:10;96230;;;12.9;71.5
68891;BME280;55932;48.702;8.884;2023-07-31T00:55:40;96240;;;13.1;71.5
68891;BME280;55932;48.702;8.884;2023-07-31T00:58:04;96240;;;13.1;71.5
68891;BME280;55932;48.702;8.884;2023-07-31T01:00:35;96240;;;13;71.5
68891;BME280;55932;48.702;8.884;2023-07-31T01:03:06;96240;;;12.9;71.5
68891;BME280;55932;48.702;8.884;2023-07-31T01:10:43;96230;;;13;71.5
68891;BME280;55932;48.702;8.884;2023-07-31T01:15:47;96230;;;13;71.5
68891;BME280;55932;48.702;8.884;2023-07-31T01:18:17;96220;;;13.2;71.5
68891;BME280;55932;48.702;8.884;2023-07-31T01:23:22;96210;;;13.5;71
68891;BME280;55932;48.702;8.884;2023-07-31T01:28:20;96210;;;13.5;71
68891;BME280;55932;48.702;8.884;2023-07-31T01:30:50;96210;;;13.5;71
68891;BME280;55932;48.702;8.884;2023-07-31T01:35:46;96210;;;13.3;71.5
68891;BME280;55932;48.702;8.884;2023-07-31T01:38:20;96210;;;13.2;71.5
68891;BME280;55932;48.702;8.884;2023-07-31T01:40:51;96210;;;13.1;71.5
68891;BME280;55932;48.702;8.884;2023-07-31T01:43:28;96200;;;13.1;71.5
68891;BME280;55932;48.702;8.884;2023-07-31T01:45:55;96200;;;13.1;71.5
68891;BME280;55932;48.702;8.884;2023-07-31T01:50:50;96200;;;13;71.5
68891;BME280;55932;48.702;8.884;2023-07-31T01:53:20;96200;;;12.9;71.5
68891;BME280;55932;48.702;8.884;2023-07-31T01:55:58;96200;;;12.8;72
68891;BME280;55932;48.702;8.884;2023-07-31T01:58:29;96200;;;12.8;72
68891;BME280;55932;48.702;8.884;2023-07-31T02:03:31;96190;;;12.7;72
68891;BME280;55932;48.702;8.884;2023-07-31T02:06:01;96190;;;12.7;72
68891;BME280;55932;48.702;8.884;2023-07-31T02:08:31;96180;;;12.7;72
68891;BME280;55932;48.702;8.884;2023-07-31T02:11:07;96180;;;12.6;72
68891;BME280;55932;48.702;8.884;2023-07-31T02:13:25;96180;;;12.7;72
68891;BME280;55932;48.702;8.884;2023-07-31T02:15:56;96180;;;12.6;72
68891;BME280;55932;48.702;8.884;2023-07-31T02:18:27;96170;;;12.6;72
68891;BME280;55932;48.702;8.884;2023-07-31T02:26:18;96160;;;12.7;71.5
68891;BME280;55932;48.702;8.884;2023-07-31T02:28:35;96160;;;12.9;71.5
68891;BME280;55932;48.702;8.884;2023-07-31T02:33:29;96150;;;13.2;71
68891;BME280;55932;48.702;8.884;2023-07-31T02:36:00;96150;;;13.3;71
68891;BME280;55932;48.702;8.884;2023-07-31T02:38:31;96150;;;13.4;71
68891;BME280;55932;48.702;8.884;2023-07-31T02:40:56;96140;;;13.5;71
68891;BME280;55932;48.702;8.884;2023-07-31T02:48:28;96150;;;13.1;71.5
68891;BME280;55932;48.702;8.884;2023-07-31T02:50:59;96150;;;13;71.5
68891;BME280;55932;48.702;8.884;2023-07-31T02:53:29;96140;;;12.9;71.5
68891;BME280;55932;48.702;8.884;2023-07-31T02:56:00;96140;;;12.7;72
68891;BME280;55932;48.702;8.884;2023-07-31T03:01:07;96150;;;12.6;72
68891;BME280;55932;48.702;8.884;2023-07-31T03:03:38;96150;;;12.6;72
68891;BME280;55932;48.702;8.884;2023-07-31T03:06:10;96150;;;12.6;72
68891;BME280;55932;48.702;8.884;2023-07-31T03:08:40;96150;;;12.6;72
68891;BME280;55932;48.702;8.884;2023-07-31T03:11:18;96150;;;12.6;72
68891;BME280;55932;48.702;8.884;2023-07-31T03:13:48;96150;;;12.6;72
68891;BME280;55932;48.702;8.884;2023-07-31T03:18:43;96140;;;12.7;72
68891;BME280;55932;48.702;8.884;2023-07-31T03:21:15;96140;;;12.7;72
68891;BME280;55932;48.702;8.884;2023-07-31T03:23:45;96140;;;12.7;71.5
68891;BME280;55932;48.702;8.884;2023-07-31T03:26:16;96140;;;12.7;71.5
68891;BME280;55932;48.702;8.884;2023-07-31T03:28:47;96150;;;12.6;72
68891;BME280;55932;48.702;8.884;2023-07-31T03:31:17;96150;;;12.6;72
68891;BME280;55932;48.702;8.884;2023-07-31T03:33:49;96150;;;12.5;72
68891;BME280;55932;48.702;8.884;2023-07-31T03:36:19;96160;;;12.6;71.5
68891;BME280;55932;48.702;8.884;2023-07-31T03:38:51;96150;;;12.8;71.5
68891;BME280;55932;48.702;8.884;2023-07-31T03:41:27;96150;;;12.9;71.5
68891;BME280;55932;48.702;8.884;2023-07-31T03:43:58;96140;;;13.1;71
68891;BME280;55932;48.702;8.884;2023-07-31T03:46:35;96150;;;13.2;71
68891;BME280;55932;48.702;8.884;2023-07-31T03:51:22;96150;;;13.4;71
68891;BME280;55932;48.702;8.884;2023-07-31T03:53:53;96140;;;13.4;71
68891;BME280;55932;48.702;8.884;2023-07-31T03:56:24;96140;;;13.5;70.5
68891;BME280;55932;48.702;8.884;2023-07-31T03:58:55;96140;;;13.5;70.5
68891;BME280;55932;48.702;8.884;2023-07-31T04:01:19;96140;;;13.6;71
68891;BME280;55932;48.702;8.884;2023-07-31T04:08:51;96140;;;13.6;71
68891;BME280;55932;48.702;8.884;2023-07-31T04:11:22;96140;;;13.6;71
68891;BME280;55932;48.702;8.884;2023-07-31T04:13:53;96130;;;13.5;71
68891;BME280;55932;48.702;8.884;2023-07-31T04:16:24;96120;;;13.6;70.5
68891;BME280;55932;48.702;8.884;2023-07-31T04:18:54;96120;;;13.7;70.5
68891;BME280;55932;48.702;8.884;2023-07-31T04:21:32;96130;;;13.9;70.5
68891;BME280;55932;48.702;8.884;2023-07-31T04:24:03;96130;;;14;70.5
68891;BME280;55932;48.702;8.884;2023-07-31T04:26:34;96130;;;14;70.5
68891;BME280;55932;48.702;8.884;2023-07-31T04:29:05;96140;;;14.1;70.5
68891;BME280;55932;48.702;8.884;2023-07-31T04:31:43;96130;;;14.2;70
68891;BME280;55932;48.702;8.884;2023-07-31T04:34:13;96140;;;14.2;70.5
68891;BME280;55932;48.702;8.884;2023-07-31T04:39:06;96130;;;14.3;70
68891;BME280;55932;48.702;8.884;2023-07-31T04:41:37;96140;;;14.3;70.5
68891;BME280;55932;48.702;8.884;2023-07-31T04:44:08;96130;;;14.3;70
68891;BME280;55932;48.702;8.884;2023-07-31T04:46:39;96130;;;14.3;70
68891;BME280;55932;48.702;8.884;2023-07-31T04:49:11;96130;;;14.2;70.5
68891;BME280;55932;48.702;8.884;2023-07-31T04:51:41;96130;;;14.1;70.5
68891;BME280;55932;48.702;8.884;2023-07-31T04:54:11;96130;;;14.1;70.5
68891;BME280;55932;48.702;8.884;2023-07-31T04:59:07;96120;;;14.1;70.5
68891;BME280;55932;48.702;8.884;2023-07-31T05:01:37;96130;;;14.2;70.5
68891;BME280;55932;48.702;8.884;2023-07-31T05:04:08;96130;;;14.3;70.5
68891;BME280;55932;48.702;8.884;2023-07-31T05:06:39;96120;;;14.4;70
68891;BME280;55932;48.702;8.884;2023-07-31T05:09:17;96120;;;14.4;70
68891;BME280;55932;48.702;8.884;2023-07-31T05:11:47;96130;;;14.5;70
68891;BME280;55932;48.702;8.884;2023-07-31T05:14:18;96130;;;14.5;70
68891;BME280;55932;48.702;8.884;2023-07-31T05:16:49;96120;;;14.6;70
68891;BME280;55932;48.702;8.884;2023-07-31T05:19:20;96120;;;14.6;70
68891;BME280;55932;48.702;8.884;2023-07-31T05:21:52;96120;;;14.7;70
68891;BME280;55932;48.702;8.884;2023-07-31T05:24:23;96120;;;14.8;70
68891;BME280;55932;48.702;8.884;2023-07-31T05:29:31;96130;;;15.1;69.5
68891;BME280;55932;48.702;8.884;2023-07-31T05:34:26;96130;;;15.5;69
68891;BME280;55932;48.702;8.884;2023-07-31T05:36:57;96130;;;15.8;69
68891;BME280;55932;48.702;8.884;2023-07-31T05:39:28;96130;;;16;69
68891;BME280;55932;48.702;8.884;2023-07-31T05:41:58;96130;;;16.2;68.5
68891;BME280;55932;48.702;8.884;2023-07-31T05:44:29;96130;;;16.3;68.5
68891;BME280;55932;48.702;8.884;2023-07-31T05:47:01;96130;;;16.4;68.5
68891;BME280;55932;48.702;8.884;2023-07-31T05:59:28;96110;;;17;68
68891;BME280;55932;48.702;8.884;2023-07-31T06:01:59;96120;;;17.1;68
68891;BME280;55932;48.702;8.884;2023-07-31T06:04:30;96120;;;17.1;68
68891;BME280;55932;48.702;8.884;2023-07-31T06:12:14;96120;;;17.5;68
68891;BME280;55932;48.702;8.884;2023-07-31T06:14:44;96110;;;17.7;68
68891;BME280;55932;48.702;8.884;2023-07-31T06:17:15;96110;;;17.7;68
68891;BME280;55932;48.702;8.884;2023-07-31T06:19:40;96100;;;17.7;68
68891;BME280;55932;48.702;8.884;2023-07-31T06:22:11;96110;;;17.8;68
68891;BME280;55932;48.702;8.884;2023-07-31T06:30:02;96110;;;18;67.5
68891;BME280;55932;48.702;8.884;2023-07-31T06:32:19;96110;;;18.1;68
68891;BME280;55932;48.702;8.884;2023-07-31T06:34:49;96110;;;18.1;67.5
68891;BME280;55932;48.702;8.884;2023-07-31T06:39:43;96110;;;18.1;68
68891;BME280;55932;48.702;8.884;2023-07-31T06:42:14;96110;;;18.1;68
68891;BME280;55932;48.702;8.884;2023-07-31T06:44:45;96110;;;18.1;68.5
68891;BME280;55932;48.702;8.884;2023-07-31T06:47:23;96120;;;18.1;68.5
68891;BME280;55932;48.702;8.884;2023-07-31T06:49:55;96120;;;18.2;68
68891;BME280;55932;48.702;8.884;2023-07-31T06:57:27;96120;;;18.2;67.5
68891;BME280;55932;48.702;8.884;2023-07-31T06:59:57;96120;;;18.2;68
68891;BME280;55932;48.702;8.884;2023-07-31T07:02:27;96120;;;18.3;68
68891;BME280;55932;48.702;8.884;2023-07-31T07:04:57;96120;;;18.5;67.5
68891;BME280;55932;48.702;8.884;2023-07-31T07:07:27;96110;;;18.6;67.5
68891;BME280;55932;48.702;8.884;2023-07-31T07:09:57;96110;;;18.7;67.5
68891;BME280;55932;48.702;8.884;2023-07-31T07:12:29;96110;;;19;67.5
68891;BME280;55932;48.702;8.884;2023-07-31T07:14:59;96110;;;19.3;67
68891;BME280;55932;48.702;8.884;2023-07-31T07:17:30;96110;;;19.5;67
68891;BME280;55932;48.702;8.884;2023-07-31T07:22:25;96100;;;20;67
68891;BME280;55932;48.702;8.884;2023-07-31T07:25:03;96100;;;19.8;67
68891;BME280;55932;48.702;8.884;2023-07-31T07:27:32;96090;;;19.5;67
68891;BME280;55932;48.702;8.884;2023-07-31T07:30:02;96090;;;19.2;67.5
68891;BME280;55932;48.702;8.884;2023-07-31T07:32:33;96090;;;19.1;67.5
68891;BME280;55932;48.702;8.884;2023-07-31T07:35:03;96080;;;19.2;67.5
68891;BME280;55932;48.702;8.884;2023-07-31T07:37:39;96080;;;19.3;67
68891;BME280;55932;48.702;8.884;2023-07-31T07:40:27;96090;;;19.4;67.5
68891;BME280;55932;48.702;8.884;2023-07-31T07:42:33;96100;;;19.4;68
68891;BME280;55932;48.702;8.884;2023-07-31T07:45:03;96090;;;19.4;68
68891;BME280;55932;48.702;8.884;2023-07-31T07:49:51;96090;;;19.6;67.5
68891;BME280;55932;48.702;8.884;2023-07-31T07:52:22;96080;;;19.9;68
68891;BME280;55932;48.702;8.884;2023-07-31T07:54:54;96080;;;21.2;69
68891;BME280;55932;48.702;8.884;2023-07-31T07:57:23;96080;;;21.1;67.5
68891;BME280;55932;48.702;8.884;2023-07-31T07:59:54;96080;;;20.6;67.5
68891;BME280;55932;48.702;8.884;2023-07-31T08:02:26;96080;;;20.5;67.5
68891;BME280;55932;48.702;8.884;2023-07-31T08:04:56;96080;;;20.4;68
68891;BME280;55932;48.702;8.884;2023-07-31T08:07:26;96070;;;20.6;68
68891;BME280;55932;48.702;8.884;2023-07-31T08:14:59;96070;;;21.8;67.5
68891;BME280;55932;48.702;8.884;2023-07-31T08:17:29;96070;;;21.8;67.5
68891;BME280;55932;48.702;8.884;2023-07-31T08:20:00;96070;;;21.8;67
68891;BME280;55932;48.702;8.884;2023-07-31T08:22:31;96070;;;21.3;67
68891;BME280;55932;48.702;8.884;2023-07-31T08:25:02;96070;;;21.2;67.5
68891;BME280;55932;48.702;8.884;2023-07-31T08:27:32;96060;;;21.3;68
68891;BME280;55932;48.702;8.884;2023-07-31T08:30:03;96070;;;22.2;67.5
68891;BME280;55932;48.702;8.884;2023-07-31T08:35:05;96060;;;22.1;67
68891;BME280;55932;48.702;8.884;2023-07-31T08:38:02;96050;;;21.6;67
68891;BME280;55932;48.702;8.884;2023-07-31T08:40:19;96060;;;21.2;67.5
68891;BME280;55932;48.702;8.884;2023-07-31T08:42:50;96050;;;21.3;68
68891;BME280;55932;48.702;8.884;2023-07-31T08:47:45;96060;;;21.6;67.5
68891;BME280;55932;48.702;8.884;2023-07-31T08:50:15;96050;;;21.1;68
68891;BME280;55932;48.702;8.884;2023-07-31T08:52:45;96050;;;21.2;68
68891;BME280;55932;48.702;8.884;2023-07-31T08:55:16;96050;;;21.3;68
68891;BME280;55932;48.702;8.884;2023-07-31T09:00:24;96050;;;21.2;67.5
68891;BME280;55932;48.702;8.884;2023-07-31T09:02:52;96030;;;21;67.5
68891;BME280;55932;48.702;8.884;2023-07-31T09:05:21;96020;;;21;67.5
68891;BME280;55932;48.702;8.884;2023-07-31T09:10:28;96020;;;21.2;67
68891;BME280;55932;48.702;8.884;2023-07-31T09:12:58;96030;;;21;67.5
68891;BME280;55932;48.702;8.884;2023-07-31T09:15:28;96030;;;20.8;67
68891;BME280;55932;48.702;8.884;2023-07-31T09:17:59;96040;;;20.6;67.5
68891;BME280;55932;48.702;8.884;2023-07-31T09:20:29;96040;;;20.4;67.5
68891;BME280;55932;48.702;8.884;2023-07-31T09:23:06;96040;;;20.4;67.5
68891;BME280;55932;48.702;8.884;2023-07-31T09:30:24;96030;;;20.7;67.5
68891;BME280;55932;48.702;8.884;2023-07-31T09:33:10;96030;;;20.9;67
68891;BME280;55932;48.702;8.884;2023-07-31T09:35:28;96020;;;21.4;66.5
68891;BME280;55932;48.702;8.884;2023-07-31T09:37:58;96020;;;21.6;66.5
68891;BME280;55932;48.702;8.884;2023-07-31T09:40:32;96000;;;21.4;66.5
68891;BME280;55932;48.702;8.884;2023-07-31T09:43:00;96000;;;21.2;67
68891;BME280;55932;48.702;8.884;2023-07-31T09:45:33;96000;;;21.1;67
68891;BME280;55932;48.702;8.884;2023-07-31T09:48:01;95990;;;21.6;67
68891;BME280;55932;48.702;8.884;2023-07-31T09:50:33;95990;;;23;67
68891;BME280;55932;48.702;8.884;2023-07-31T09:53:09;95990;;;23.7;66
68891;BME280;55932;48.702;8.884;2023-07-31T09:58:06;96000;;;23.8;66
68891;BME280;55932;48.702;8.884;2023-07-31T10:00:35;95990;;;23.6;66
68891;BME280;55932;48.702;8.884;2023-07-31T10:03:07;95980;;;23.1;66.5
68891;BME280;55932;48.702;8.884;2023-07-31T10:05:38;95970;;;22.8;66
68891;BME280;55932;48.702;8.884;2023-07-31T10:08:09;95970;;;23;66.5
68891;BME280;55932;48.702;8.884;2023-07-31T10:10:46;95970;;;23;67
68891;BME280;55932;48.702;8.884;2023-07-31T10:15:41;95970;;;23.1;67
68891;BME280;55932;48.702;8.884;2023-07-31T10:23:14;95970;;;23.6;66
68891;BME280;55932;48.702;8.884;2023-07-31T10:25:45;95980;;;23.5;66
68891;BME280;55932;48.702;8.884;2023-07-31T10:28:16;95970;;;22.8;66.5
68891;BME280;55932;48.702;8.884;2023-07-31T10:30:53;95960;;;22.7;67
68891;BME280;55932;48.702;8.884;2023-07-31T10:35:49;95960;;;23.1;66.5
68891;BME280;55932;48.702;8.884;2023-07-31T10:40:51;95950;;;24;66
68891;BME280;55932;48.702;8.884;2023-07-31T10:43:23;95940;;;24.2;66
68891;BME280;55932;48.702;8.884;2023-07-31T10:45:55;95950;;;23.9;66
68891;BME280;55932;48.702;8.884;2023-07-31T10:48:24;95950;;;24;65.5
68891;BME280;55932;48.702;8.884;2023-07-31T10:50:55;95950;;;23.8;65.5
68891;BME280;55932;48.702;8.884;2023-07-31T10:53:28;95940;;;23.5;65.5
68891;BME280;55932;48.702;8.884;2023-07-31T10:55:58;95940;;;23.5;65.5
68891;BME280;55932;48.702;8.884;2023-07-31T11:03:45;95940;;;23;66.5
68891;BME280;55932;48.702;8.884;2023-07-31T11:06:01;95940;;;23.2;66
68891;BME280;55932;48.702;8.884;2023-07-31T11:08:32;95940;;;23.3;65.5
68891;BME280;55932;48.702;8.884;2023-07-31T11:11:06;95940;;;23.2;66
68891;BME280;55932;48.702;8.884;2023-07-31T11:16:03;95940;;;23;66
68891;BME280;55932;48.702;8.884;2023-07-31T11:18:34;95940;;;23;66
68891;BME280;55932;48.702;8.884;2023-07-31T11:21:05;95940;;;22.9;66
68891;BME280;55932;48.702;8.884;2023-07-31T11:23:36;95940;;;23;65.5
68891;BME280;55932;48.702;8.884;2023-07-31T11:26:07;95930;;;23;66
68891;BME280;55932;48.702;8.884;2023-07-31T11:28:38;95940;;;22.8;66
68891;BME280;55932;48.702;8.884;2023-07-31T11:31:09;95930;;;22.8;66
68891;BME280;55932;48.702;8.884;2023-07-31T11:33:47;95930;;;22.5;66.5
68891;BME280;55932;48.702;8.884;2023-07-31T11:38:42;95930;;;22.4;66.5
68891;BME280;55932;48.702;8.884;2023-07-31T11:41:13;95930;;;22.3;67
68891;BME280;55932;48.702;8.884;2023-07-31T11:43:51;95930;;;22.1;67
68891;BME280;55932;48.702;8.884;2023-07-31T11:48:51;95920;;;21.9;67.5
68891;BME280;55932;48.702;8.884;2023-07-31T11:51:22;95910;;;21.8;67.5
68891;BME280;55932;48.702;8.884;2023-07-31T11:53:47;95910;;;21.9;67
68891;BME280;55932;48.702;8.884;2023-07-31T11:56:17;95900;;;21.9;67
68891;BME280;55932;48.702;8.884;2023-07-31T11:58:49;95900;;;22;67
68891;BME280;55932;48.702;8.884;2023-07-31T12:01:26;95900;;;22;67
68891;BME280;55932;48.702;8.884;2023-07-31T12:06:41;95900;;;22.2;66.5
68891;BME280;55932;48.702;8.884;2023-07-31T12:11:27;95900;;;22.2;66.5
68891;BME280;55932;48.702;8.884;2023-07-31T12:13:57;95900;;;21.9;67
68891;BME280;55932;48.702;8.884;2023-07-31T12:16:28;95900;;;21.8;67.5
68891;BME280;55932;48.702;8.884;2023-07-31T12:18:58;95890;;;21.7;67.5
68891;BME280;55932;48.702;8.884;2023-07-31T12:21:21;95890;;;21.8;67
68891;BME280;55932;48.702;8.884;2023-07-31T12:23:53;95890;;;21.9;67
68891;BME280;55932;48.702;8.884;2023-07-31T12:26:33;95890;;;22;66.5
68891;BME280;55932;48.702;8.884;2023-07-31T12:31:27;95880;;;22.5;66
68891;BME280;55932;48.702;8.884;2023-07-31T12:33:57;95870;;;22.9;66
68891;BME280;55932;48.702;8.884;2023-07-31T12:36:28;95870;;;23.8;65
68891;BME280;55932;48.702;8.884;2023-07-31T12:38:59;95870;;;24.9;63.5
68891;BME280;55932;48.702;8.884;2023-07-31T12:41:30;95860;;;25.7;62.5
68891;BME280;55932;48.702;8.884;2023-07-31T12:44:07;95850;;;26.1;62
68891;BME280;55932;48.702;8.884;2023-07-31T12:46:37;95850;;;25.7;63
68891;BME280;55932;48.702;8.884;2023-07-31T12:49:02;95840;;;25.4;63.5
68891;BME280;55932;48.702;8.884;2023-07-31T12:51:32;95840;;;25.4;63.5
68891;BME280;55932;48.702;8.884;2023-07-31T12:54:10;95830;;;25.7;63.5
68891;BME280;55932;48.702;8.884;2023-07-31T12:56:41;95840;;;27.2;61.5
68891;BME280;55932;48.702;8.884;2023-07-31T13:01:56;95830;;;27.9;61
68891;BME280;55932;48.702;8.884;2023-07-31T13:04:13;95820;;;28.5;60.5
68891;BME280;55932;48.702;8.884;2023-07-31T13:06:44;95830;;;27.1;62
68891;BME280;55932;48.702;8.884;2023-07-31T13:11:44;95820;;;26.2;63.5
68891;BME280;55932;48.702;8.884;2023-07-31T13:14:14;95820;;;26.5;63.5
68891;BME280;55932;48.702;8.884;2023-07-31T13:16:44;95820;;;27.6;62
68891;BME280;55932;48.702;8.884;2023-07-31T13:19:15;95810;;;28.2;61.5
68891;BME280;55932;48.702;8.884;2023-07-31T13:21:46;95810;;;28.3;61.5
68891;BME280;55932;48.702;8.884;2023-07-31T13:24:16;95810;;;27.3;62.5
68891;BME280;55932;48.702;8.884;2023-07-31T13:31:41;95800;;;27.8;62
68891;BME280;55932;48.702;8.884;2023-07-31T13:34:13;95800;;;27.8;61.5
68891;BME280;55932;48.702;8.884;2023-07-31T13:36:43;95800;;;27.3;62.5
68891;BME280;55932;48.702;8.884;2023-07-31T13:39:13;95790;;;26.9;63
68891;BME280;55932;48.702;8.884;2023-07-31T13:41:44;95800;;;27;63
68891;BME280;55932;48.702;8.884;2023-07-31T13:44:15;95790;;;27.6;62
68891;BME280;55932;48.702;8.884;2023-07-31T13:49:17;95790;;;26.6;63.5
68891;BME280;55932;48.702;8.884;2023-07-31T13:51:48;95790;;;25.7;65
68891;BME280;55932;48.702;8.884;2023-07-31T13:54:26;95790;;;25;65.5
68891;BME280;55932;48.702;8.884;2023-07-31T13:59:21;95780;;;24.5;66
68891;BME280;55932;48.702;8.884;2023-07-31T14:04:30;95780;;;25.1;65
68891;BME280;55932;48.702;8.884;2023-07-31T14:07:00;95770;;;25.1;65
68891;BME280;55932;48.702;8.884;2023-07-31T14:09:30;95780;;;24.9;65
68891;BME280;55932;48.702;8.884;2023-07-31T14:12:00;95780;;;24.6;65.5
68891;BME280;55932;48.702;8.884;2023-07-31T14:14:30;95780;;;24.6;65.5
68891;BME280;55932;48.702;8.884;2023-07-31T14:17:01;95770;;;24.7;65
68891;BME280;55932;48.702;8.884;2023-07-31T14:21:58;95770;;;25.5;64
68891;BME280;55932;48.702;8.884;2023-07-31T14:26:58;95770;;;25.4;64
68891;BME280;55932;48.702;8.884;2023-07-31T14:29:35;95770;;;25.1;64.5
68891;BME280;55932;48.702;8.884;2023-07-31T14:32:12;95770;;;24.9;65
68891;BME280;55932;48.702;8.884;2023-07-31T14:34:29;95770;;;25.1;65
68891;BME280;55932;48.702;8.884;2023-07-31T14:39:31;95770;;;25.4;64.5
68891;BME280;55932;48.702;8.884;2023-07-31T14:42:02;95770;;;25.4;64.5
68891;BME280;55932;48.702;8.884;2023-07-31T14:44:46;95770;;;25.2;64.5
68891;BME280;55932;48.702;8.884;2023-07-31T14:47:09;95760;;;25.2;64.5
68891;BME280;55932;48.702;8.884;2023-07-31T14:52:10;95770;;;25.6;64
68891;BME280;55932;48.702;8.884;2023-07-31T14:54:41;95760;;;25.5;64
68891;BME280;55932;48.702;8.884;2023-07-31T14:57:12;95760;;;25.4;64
68891;BME280;55932;48.702;8.884;2023-07-31T14:59:36;95750;;;25.1;64
68891;BME280;55932;48.702;8.884;2023-07-31T15:04:31;95760;;;24.1;66
68891;BME280;55932;48.702;8.884;2023-07-31T15:09:32;95760;;;23.7;66.5
68891;BME280;55932;48.702;8.884;2023-07-31T15:12:03;95750;;;23.8;66
68891;BME280;55932;48.702;8.884;2023-07-31T15:14:33;95750;;;24.2;65.5
68891;BME280;55932;48.702;8.884;2023-07-31T15:24:43;95730;;;24.2;65.5
68891;BME280;55932;48.702;8.884;2023-07-31T15:27:17;95720;;;24;65.5
68891;BME280;55932;48.702;8.884;2023-07-31T15:32:25;95710;;;23.7;66
68891;BME280;55932;48.702;8.884;2023-07-31T15:34:52;95710;;;23.5;66
68891;BME280;55932;48.702;8.884;2023-07-31T15:39:46;95700;;;23.2;66.5
68891;BME280;55932;48.702;8.884;2023-07-31T15:42:17;95700;;;23;67
68891;BME280;55932;48.702;8.884;2023-07-31T15:44:53;95690;;;22.8;67
68891;BME280;55932;48.702;8.884;2023-07-31T15:52:28;95670;;;23;66.5
68891;BME280;55932;48.702;8.884;2023-07-31T15:54:59;95680;;;23.4;66
68891;BME280;55932;48.702;8.884;2023-07-31T15:57:28;95680;;;24;65
68891;BME280;55932;48.702;8.884;2023-07-31T15:59:58;95680;;;24.3;64.5
68891;BME280;55932;48.702;8.884;2023-07-31T16:02:32;95690;;;24.3;64.5
68891;BME280;55932;48.702;8.884;2023-07-31T16:04:53;95690;;;24.2;64.5
68891;BME280;55932;48.702;8.884;2023-07-31T16:07:30;95690;;;23.6;65.5
68891;BME280;55932;48.702;8.884;2023-07-31T16:10:01;95680;;;23.2;66
68891;BME280;55932;48.702;8.884;2023-07-31T16:17:34;95670;;;22.7;67
68891;BME280;55932;48.702;8.884;2023-07-31T16:20:04;95670;;;22.7;67
68891;BME280;55932;48.702;8.884;2023-07-31T16:22:34;95670;;;22.6;67
68891;BME280;55932;48.702;8.884;2023-07-31T16:24:58;95660;;;22.4;67.5
68891;BME280;55932;48.702;8.884;2023-07-31T16:27:35;95670;;;22.5;67
68891;BME280;55932;48.702;8.884;2023-07-31T16:32:31;95670;;;22.5;67.5
68891;BME280;55932;48.702;8.884;2023-07-31T16:35:21;95670;;;22.4;67.5
68891;BME280;55932;48.702;8.884;2023-07-31T16:37:38;95670;;;22.3;67.5
68891;BME280;55932;48.702;8.884;2023-07-31T16:40:08;95680;;;22.3;67.5
68891;BME280;55932;48.702;8.884;2023-07-31T16:42:39;95670;;;22;67.5
68891;BME280;55932;48.702;8.884;2023-07-31T16:45:08;95670;;;21.9;68
68891;BME280;55932;48.702;8.884;2023-07-31T16:47:39;95670;;;21.8;68
68891;BME280;55932;48.702;8.884;2023-07-31T16:54:57;95660;;;22;67.5
68891;BME280;55932;48.702;8.884;2023-07-31T16:57:28;95650;;;22.2;67.5
68891;BME280;55932;48.702;8.884;2023-07-31T16:59:59;95630;;;22.3;67.5
68891;BME280;55932;48.702;8.884;2023-07-31T17:02:30;95640;;;22.2;67.5
68891;BME280;55932;48.702;8.884;2023-07-31T17:05:00;95640;;;22;67.5
68891;BME280;55932;48.702;8.884;2023-07-31T17:07:31;95630;;;21.9;68
68891;BME280;55932;48.702;8.884;2023-07-31T17:10:09;95620;;;21.9;67.5
68891;BME280;55932;48.702;8.884;2023-07-31T17:12:39;95620;;;21.8;68
68891;BME280;55932;48.702;8.884;2023-07-31T17:15:11;95620;;;21.7;68
68891;BME280;55932;48.702;8.884;2023-07-31T17:17:41;95630;;;21.7;68
68891;BME280;55932;48.702;8.884;2023-07-31T17:25:07;95630;;;21.8;68
68891;BME280;55932;48.702;8.884;2023-07-31T17:27:43;95630;;;21.8;68
68891;BME280;55932;48.702;8.884;2023-07-31T17:30:09;95630;;;21.8;68
68891;BME280;55932;48.702;8.884;2023-07-31T17:32:39;95630;;;21.8;68
68891;BME280;55932;48.702;8.884;2023-07-31T17:37:48;95620;;;21.7;68
68891;BME280;55932;48.702;8.884;2023-07-31T17:40:18;95620;;;21.7;68
68891;BME280;55932;48.702;8.884;2023-07-31T17:42:49;95620;;;21.7;68
68891;BME280;55932;48.702;8.884;2023-07-31T17:47:44;95620;;;21.5;68
68891;BME280;55932;48.702;8.884;2023-07-31T17:57:47;95630;;;21.3;68.5
68891;BME280;55932;48.702;8.884;2023-07-31T18:00:19;95630;;;21.3;68.5
68891;BME280;55932;48.702;8.884;2023-07-31T18:02:48;95630;;;21.2;68.5
68891;BME280;55932;48.702;8.884;2023-07-31T18:05:19;95620;;;21.2;68.5
68891;BME280;55932;48.702;8.884;2023-07-31T18:07:52;95630;;;21.1;68.5
68891;BME280;55932;48.702;8.884;2023-07-31T18:10:21;95630;;;21;68.5
68891;BME280;55932;48.702;8.884;2023-07-31T18:12:52;95620;;;20.9;69
68891;BME280;55932;48.702;8.884;2023-07-31T18:15:36;95610;;;20.8;69
68891;BME280;55932;48.702;8.884;2023-07-31T18:18:06;95610;;;20.7;69
68891;BME280;55932;48.702;8.884;2023-07-31T18:20:42;95610;;;20.6;69
68891;BME280;55932;48.702;8.884;2023-07-31T18:23:06;95600;;;20.4;69
68891;BME280;55932;48.702;8.884;2023-07-31T18:28:02;95610;;;19.7;69.5
68891;BME280;55932;48.702;8.884;2023-07-31T18:30:33;95620;;;19.1;70
68891;BME280;55932;48.702;8.884;2023-07-31T18:35:40;95610;;;18.4;70.5
68891;BME280;55932;48.702;8.884;2023-07-31T18:38:10;95610;;;18;70.5